Time;durP1;ratioP1;P1;durP2;ratioP2;P2;SDS_P1;SDS_P2;PMS_P1;PMS_P2;Temp;Humidity;BMP_temperature;BMP_pressure;BME280_temperature;BME280_humidity;BME280_pressure;Samples;Min_cycle;Max_cycle;Signal;HPM_P1;HPM_P2
2021/10/18 00:02:12;;;;;;;7.65;5.00;;;11.50;99.90;;;;;;5102187;28;20404;-68
2021/10/18 00:04:38;;;;;;;10.38;5.32;;;11.60;99.90;;;;;;5093815;28;20048;-68
2021/10/18 00:07:04;;;;;;;12.30;5.28;;;11.50;99.90;;;;;;5083178;28;20048;-68
2021/10/18 00:09:29;;;;;;;9.38;4.88;;;11.60;99.90;;;;;;5094031;28;20047;-69
2021/10/18 00:11:55;;;;;;;8.93;5.47;;;11.60;99.90;;;;;;5101315;28;20039;-68
2021/10/18 00:14:21;;;;;;;13.88;7.03;;;11.60;99.90;;;;;;5085093;28;20048;-68
2021/10/18 00:16:47;;;;;;;10.57;5.57;;;11.60;99.90;;;;;;5094491;28;20119;-68
2021/10/18 00:19:13;;;;;;;10.15;5.43;;;11.50;99.90;;;;;;5091591;28;20044;-68
2021/10/18 00:21:39;;;;;;;10.65;5.75;;;11.60;99.90;;;;;;5098054;28;20434;-68
2021/10/18 00:24:05;;;;;;;9.63;5.82;;;11.50;99.90;;;;;;5100536;28;20043;-68
2021/10/18 00:26:31;;;;;;;9.48;5.43;;;11.50;99.90;;;;;;5077824;28;20059;-68
2021/10/18 00:28:57;;;;;;;11.25;5.38;;;11.50;99.90;;;;;;5102845;28;20123;-68
2021/10/18 00:31:23;;;;;;;12.57;6.25;;;11.50;99.90;;;;;;5095946;28;20048;-68
2021/10/18 00:33:48;;;;;;;12.27;6.20;;;11.40;99.90;;;;;;5102702;28;20036;-68
2021/10/18 00:36:14;;;;;;;12.77;6.45;;;11.40;99.90;;;;;;5095742;28;20433;-68
2021/10/18 00:38:40;;;;;;;10.77;6.30;;;11.20;99.90;;;;;;5102940;28;20428;-68
2021/10/18 00:41:06;;;;;;;8.15;5.85;;;11.30;99.90;;;;;;5097147;28;20040;-68
2021/10/18 00:43:31;;;;;;;10.35;6.90;;;11.20;99.90;;;;;;5103129;28;20051;-69
2021/10/18 00:45:57;;;;;;;15.00;6.35;;;11.10;99.90;;;;;;5102810;28;20082;-68
2021/10/18 00:48:23;;;;;;;10.00;6.82;;;11.10;99.90;;;;;;5102728;28;20044;-68
2021/10/18 00:50:51;;;;;;;16.00;6.45;;;11.10;99.90;;;;;;5104460;28;20063;-68
2021/10/18 00:53:18;;;;;;;12.40;6.80;;;11.00;99.90;;;;;;5094511;28;20063;-68
2021/10/18 00:55:44;;;;;;;10.98;6.07;;;11.10;99.90;;;;;;5100560;28;20051;-69
2021/10/18 00:58:10;;;;;;;10.68;6.70;;;11.00;99.90;;;;;;5099524;28;20040;-69
2021/10/18 01:00:36;;;;;;;15.55;7.03;;;11.10;99.90;;;;;;5106288;28;20063;-69
2021/10/18 01:03:02;;;;;;;8.15;6.30;;;11.00;99.90;;;;;;5101300;28;20067;-68
2021/10/18 01:05:28;;;;;;;10.50;6.32;;;11.10;99.90;;;;;;5105208;28;20051;-69
2021/10/18 01:07:54;;;;;;;15.05;6.57;;;11.10;99.90;;;;;;5097776;28;20431;-68
2021/10/18 01:10:19;;;;;;;13.10;6.97;;;11.10;99.90;;;;;;5104390;28;20063;-68
2021/10/18 01:12:45;;;;;;;11.65;6.93;;;11.10;99.90;;;;;;5103736;28;20040;-68
2021/10/18 01:15:11;;;;;;;13.60;7.10;;;11.00;99.90;;;;;;5104598;28;20052;-68
2021/10/18 01:17:36;;;;;;;11.43;7.22;;;10.90;99.90;;;;;;5097487;28;20071;-68
2021/10/18 01:20:08;;;;;;;11.32;7.32;;;10.90;99.90;;;;;;5104493;28;20044;-68
2021/10/18 01:22:33;;;;;;;13.35;7.07;;;10.90;99.90;;;;;;5104352;28;20044;-68
2021/10/18 01:24:59;;;;;;;13.88;7.30;;;10.90;99.90;;;;;;5099509;28;20104;-68
2021/10/18 01:27:25;;;;;;;11.68;7.18;;;10.90;99.90;;;;;;5077262;28;20060;-68
2021/10/18 01:29:50;;;;;;;11.70;8.35;;;10.90;99.90;;;;;;5097995;28;20100;-68
2021/10/18 01:32:16;;;;;;;12.25;7.72;;;11.00;99.90;;;;;;5097143;28;20048;-68
2021/10/18 01:34:42;;;;;;;17.13;8.45;;;11.00;99.90;;;;;;5095486;28;20045;-68
2021/10/18 01:37:08;;;;;;;16.27;7.60;;;11.00;99.90;;;;;;5099263;28;20043;-68
2021/10/18 01:39:33;;;;;;;9.35;7.28;;;11.00;99.90;;;;;;5093408;28;20124;-68
2021/10/18 01:41:59;;;;;;;10.10;7.07;;;11.00;99.90;;;;;;5100022;28;20048;-69
2021/10/18 01:44:25;;;;;;;12.65;7.07;;;11.00;99.90;;;;;;5076029;28;20041;-68
2021/10/18 01:46:50;;;;;;;12.70;7.57;;;11.00;99.90;;;;;;5100262;28;20044;-68
2021/10/18 01:49:16;;;;;;;16.33;7.53;;;11.00;99.90;;;;;;5092601;28;20124;-69
2021/10/18 01:51:42;;;;;;;11.73;8.30;;;10.90;99.90;;;;;;5100716;28;20052;-68
2021/10/18 01:54:08;;;;;;;16.33;7.50;;;11.00;99.90;;;;;;5103357;28;20055;-69
2021/10/18 01:56:34;;;;;;;13.68;8.00;;;10.90;99.90;;;;;;5098962;28;20104;-69
2021/10/18 01:59:01;;;;;;;14.00;8.00;;;10.90;99.90;;;;;;5106230;28;20101;-69
2021/10/18 02:01:26;;;;;;;11.43;7.32;;;10.90;99.90;;;;;;5098131;28;20061;-68
2021/10/18 02:03:52;;;;;;;16.25;8.10;;;10.90;99.90;;;;;;5105348;28;20086;-68
2021/10/18 02:06:19;;;;;;;12.70;7.13;;;10.90;99.90;;;;;;5098116;28;20055;-68
2021/10/18 02:08:45;;;;;;;11.50;7.13;;;10.90;99.90;;;;;;5099201;28;20048;-69
2021/10/18 02:11:12;;;;;;;11.90;7.18;;;11.00;99.90;;;;;;5085860;28;20219;-68
2021/10/18 02:13:38;;;;;;;9.13;5.97;;;11.00;99.90;;;;;;5086059;28;20077;-69
2021/10/18 02:16:04;;;;;;;10.93;6.95;;;11.00;99.90;;;;;;5087612;28;20066;-68
2021/10/18 02:18:30;;;;;;;13.43;6.82;;;11.00;99.90;;;;;;5085679;28;20104;-69
2021/10/18 02:20:59;;;;;;;12.05;7.18;;;11.00;99.90;;;;;;5085624;28;20033;-67
2021/10/18 02:23:29;;;;;;;11.52;7.47;;;10.90;99.90;;;;;;5085427;28;20048;-67
2021/10/18 02:25:55;;;;;;;11.95;6.60;;;10.90;99.90;;;;;;5091385;28;20047;-69
2021/10/18 02:28:21;;;;;;;11.35;6.85;;;10.90;99.90;;;;;;5087589;28;20037;-68
2021/10/18 02:30:48;;;;;;;13.77;7.18;;;10.90;99.90;;;;;;5100138;28;20108;-67
2021/10/18 02:33:13;;;;;;;11.60;7.30;;;10.90;99.90;;;;;;5094354;28;20083;-67
2021/10/18 02:35:39;;;;;;;12.65;7.47;;;10.90;99.90;;;;;;5089153;28;20036;-67
2021/10/18 02:38:04;;;;;;;13.75;8.02;;;10.80;99.90;;;;;;5085150;28;20037;-67
2021/10/18 02:40:30;;;;;;;12.60;7.45;;;10.80;99.90;;;;;;5085059;28;20046;-67
2021/10/18 02:42:56;;;;;;;13.52;7.38;;;10.80;99.90;;;;;;5085510;28;20064;-67
2021/10/18 02:45:22;;;;;;;12.90;7.63;;;10.70;99.90;;;;;;5090749;28;20045;-67
2021/10/18 02:47:47;;;;;;;19.75;7.63;;;10.60;99.90;;;;;;5086572;28;20028;-67
2021/10/18 02:50:13;;;;;;;11.60;7.60;;;10.60;99.90;;;;;;5094347;28;20058;-67
2021/10/18 02:52:39;;;;;;;12.77;8.48;;;10.50;99.90;;;;;;5085190;28;20056;-67
2021/10/18 02:55:05;;;;;;;16.33;8.23;;;10.50;99.90;;;;;;5090452;28;20061;-67
2021/10/18 02:57:31;;;;;;;14.32;8.40;;;10.50;99.90;;;;;;5084507;28;20066;-68
2021/10/18 02:59:56;;;;;;;14.70;8.15;;;10.40;99.90;;;;;;5092212;28;20070;-69
2021/10/18 03:02:22;;;;;;;13.93;9.23;;;10.40;99.90;;;;;;5091245;28;20052;-68
2021/10/18 03:04:48;;;;;;;15.00;9.25;;;10.40;99.90;;;;;;5084788;28;20539;-69
2021/10/18 03:07:13;;;;;;;12.02;8.80;;;10.30;99.90;;;;;;5084850;28;20103;-68
2021/10/18 03:09:40;;;;;;;13.30;8.45;;;10.30;99.90;;;;;;5083811;28;20040;-68
2021/10/18 03:12:05;;;;;;;12.50;8.85;;;10.30;99.90;;;;;;5085129;28;20085;-68
2021/10/18 03:14:31;;;;;;;14.98;9.13;;;10.30;99.90;;;;;;5092425;28;20132;-68
2021/10/18 03:16:57;;;;;;;14.35;8.48;;;10.30;99.90;;;;;;5084671;28;20040;-68
2021/10/18 03:19:23;;;;;;;15.77;9.23;;;10.30;99.90;;;;;;5084413;28;20044;-68
2021/10/18 03:21:48;;;;;;;17.20;9.00;;;10.30;99.90;;;;;;5084926;28;20044;-68
2021/10/18 03:24:14;;;;;;;14.18;8.80;;;10.20;99.90;;;;;;5088835;28;20040;-68
2021/10/18 03:26:39;;;;;;;14.30;8.75;;;10.40;99.90;;;;;;5087629;28;20048;-67
2021/10/18 03:29:05;;;;;;;13.27;8.40;;;10.40;99.90;;;;;;5084253;28;20036;-67
2021/10/18 03:31:31;;;;;;;15.10;9.45;;;10.40;99.90;;;;;;5088657;28;20500;-67
2021/10/18 03:33:56;;;;;;;14.73;7.93;;;10.40;99.90;;;;;;5093492;28;20454;-67
2021/10/18 03:36:22;;;;;;;13.15;8.43;;;10.30;99.90;;;;;;5092375;28;20089;-67
2021/10/18 03:38:48;;;;;;;13.55;8.70;;;10.40;99.90;;;;;;5088016;28;20047;-67
2021/10/18 03:41:14;;;;;;;14.18;8.75;;;10.30;99.90;;;;;;5086391;28;20082;-67
2021/10/18 03:43:39;;;;;;;14.95;8.82;;;10.30;99.90;;;;;;5084322;28;20048;-67
2021/10/18 03:46:05;;;;;;;15.95;9.90;;;10.30;99.90;;;;;;5093343;28;20044;-67
2021/10/18 03:48:31;;;;;;;17.60;10.38;;;10.30;99.90;;;;;;5084765;28;20524;-67
2021/10/18 03:50:57;;;;;;;13.73;8.70;;;10.20;99.90;;;;;;5087849;28;20043;-67
2021/10/18 03:53:23;;;;;;;17.77;9.43;;;10.20;99.90;;;;;;5083752;28;20052;-67
2021/10/18 03:55:49;;;;;;;16.80;9.55;;;10.10;99.90;;;;;;5083978;28;20052;-67
2021/10/18 03:58:15;;;;;;;20.17;10.52;;;10.00;99.90;;;;;;5084020;28;20048;-67
2021/10/18 04:00:41;;;;;;;14.73;9.50;;;10.00;99.90;;;;;;5086315;28;20074;-67
2021/10/18 04:03:07;;;;;;;15.57;10.18;;;10.00;99.90;;;;;;5068530;28;20043;-67
2021/10/18 04:05:33;;;;;;;15.00;9.80;;;9.90;99.90;;;;;;5084020;28;20138;-67
2021/10/18 04:07:58;;;;;;;13.35;8.88;;;9.90;99.90;;;;;;5084045;28;20225;-67
2021/10/18 04:10:24;;;;;;;18.23;10.32;;;9.90;99.90;;;;;;5083393;28;20056;-67
2021/10/18 04:12:50;;;;;;;15.75;10.35;;;10.00;99.90;;;;;;5085383;28;20134;-67
2021/10/18 04:15:16;;;;;;;16.65;10.27;;;9.90;99.90;;;;;;5084158;28;20041;-67
2021/10/18 04:17:42;;;;;;;19.50;10.50;;;9.90;99.90;;;;;;5085180;28;20064;-67
2021/10/18 04:20:09;;;;;;;13.98;9.88;;;9.90;99.90;;;;;;5095195;28;20040;-67
2021/10/18 04:22:34;;;;;;;16.37;10.10;;;9.90;99.90;;;;;;5104338;28;20043;-67
2021/10/18 04:25:00;;;;;;;21.17;10.82;;;9.90;99.90;;;;;;5099162;28;20036;-67
2021/10/18 04:27:26;;;;;;;17.70;10.52;;;9.90;99.90;;;;;;5099531;28;20048;-67
2021/10/18 04:29:52;;;;;;;15.70;10.73;;;10.00;99.90;;;;;;5097600;28;20032;-67
2021/10/18 04:32:18;;;;;;;19.00;11.45;;;9.90;99.90;;;;;;5089824;28;20488;-67
2021/10/18 04:34:44;;;;;;;18.05;9.85;;;10.00;99.90;;;;;;5095981;28;20120;-67
2021/10/18 04:37:10;;;;;;;18.88;11.63;;;10.00;99.90;;;;;;5104438;28;20127;-67
2021/10/18 04:39:36;;;;;;;16.08;10.32;;;9.90;99.90;;;;;;5099071;28;20051;-67
2021/10/18 04:42:02;;;;;;;16.10;9.60;;;10.00;99.90;;;;;;5100921;28;20108;-67
2021/10/18 04:44:28;;;;;;;16.70;10.25;;;10.00;99.90;;;;;;5104666;28;20062;-68
2021/10/18 04:46:53;;;;;;;18.55;8.73;;;10.00;99.90;;;;;;5090973;28;20078;-67
2021/10/18 04:49:19;;;;;;;19.70;11.60;;;10.00;99.90;;;;;;5101322;28;20067;-67
2021/10/18 04:51:45;;;;;;;18.58;10.07;;;10.00;99.90;;;;;;5095095;28;20056;-67
2021/10/18 04:54:11;;;;;;;14.73;9.82;;;10.00;99.90;;;;;;5098495;28;20040;-67
2021/10/18 04:56:36;;;;;;;16.45;10.10;;;9.90;99.90;;;;;;5105261;28;20044;-67
2021/10/18 04:59:02;;;;;;;22.90;11.50;;;9.80;99.90;;;;;;5089605;28;20064;-67
2021/10/18 05:01:28;;;;;;;16.95;10.15;;;9.80;99.90;;;;;;5087682;28;20041;-67
2021/10/18 05:03:54;;;;;;;16.25;9.98;;;9.80;99.90;;;;;;5087275;28;20063;-67
2021/10/18 05:06:19;;;;;;;18.13;10.57;;;9.70;99.90;;;;;;5093936;28;20048;-67
2021/10/18 05:08:45;;;;;;;14.25;10.05;;;9.70;99.90;;;;;;5087143;28;20044;-67
2021/10/18 05:11:11;;;;;;;16.75;10.60;;;9.70;99.90;;;;;;5086634;28;20328;-67
2021/10/18 05:13:36;;;;;;;20.67;9.93;;;9.60;99.90;;;;;;5087518;28;20064;-67
2021/10/18 05:16:02;;;;;;;20.42;10.05;;;9.60;99.90;;;;;;5094420;28;20036;-67
2021/10/18 05:18:28;;;;;;;19.02;11.60;;;9.60;99.90;;;;;;5095177;28;20547;-67
2021/10/18 05:20:54;;;;;;;16.52;10.68;;;9.50;99.90;;;;;;5086953;28;20049;-67
2021/10/18 05:23:19;;;;;;;21.55;11.15;;;9.50;99.90;;;;;;5086824;28;20041;-67
2021/10/18 05:25:46;;;;;;;18.45;10.88;;;9.40;99.90;;;;;;5093139;28;20100;-67
2021/10/18 05:28:12;;;;;;;15.07;10.98;;;9.40;99.90;;;;;;5094288;28;20045;-67
2021/10/18 05:30:37;;;;;;;18.48;10.93;;;9.40;99.90;;;;;;5086461;28;20047;-67
2021/10/18 05:33:04;;;;;;;17.30;12.55;;;9.40;99.90;;;;;;5086627;28;20064;-67
2021/10/18 05:35:30;;;;;;;16.00;11.70;;;9.40;99.90;;;;;;5087261;28;20054;-67
2021/10/18 05:37:56;;;;;;;21.13;11.40;;;9.30;99.90;;;;;;5086703;28;20032;-67
2021/10/18 05:40:23;;;;;;;18.95;12.65;;;9.30;99.90;;;;;;5086274;28;20044;-68
2021/10/18 05:42:50;;;;;;;22.30;12.33;;;9.20;99.90;;;;;;5086716;28;20053;-67
2021/10/18 05:45:16;;;;;;;19.95;11.75;;;9.20;99.90;;;;;;5090189;28;20089;-67
2021/10/18 05:48:02;;;;;;;18.73;11.77;;;9.30;99.90;;;;;;5093440;28;20071;-67
2021/10/18 05:50:30;;;;;;;21.58;12.43;;;9.30;99.90;;;;;;5086346;28;20048;-67
2021/10/18 05:52:56;;;;;;;;;;;9.30;99.90;;;;;;5086543;28;20041;-67
2021/10/18 05:55:22;;;;;;;21.92;12.85;;;9.20;99.90;;;;;;5090705;28;20272;-67
2021/10/18 05:57:56;;;;;;;22.98;13.20;;;9.30;99.90;;;;;;5086128;28;20052;-67
2021/10/18 06:00:23;;;;;;;20.77;11.52;;;9.40;99.90;;;;;;5086051;28;20052;-67
2021/10/18 06:02:50;;;;;;;19.30;12.48;;;9.40;99.90;;;;;;5085998;28;20043;-67
2021/10/18 06:05:17;;;;;;;20.13;12.50;;;9.40;99.90;;;;;;5087533;28;20176;-67
2021/10/18 06:07:43;;;;;;;19.92;12.23;;;9.40;99.90;;;;;;5085493;28;20068;-67
2021/10/18 06:10:11;;;;;;;17.42;12.93;;;9.50;99.90;;;;;;5088077;28;20145;-67
2021/10/18 06:12:38;;;;;;;17.42;12.20;;;9.40;99.90;;;;;;5085991;28;20123;-67
2021/10/18 06:15:05;;;;;;;21.85;13.50;;;9.40;99.90;;;;;;5087948;28;20059;-67
2021/10/18 06:17:30;;;;;;;20.33;13.43;;;9.40;99.90;;;;;;5091221;28;20047;-67
2021/10/18 06:19:56;;;;;;;18.52;12.90;;;9.40;99.90;;;;;;5088878;28;20045;-67
2021/10/18 06:22:22;;;;;;;27.00;13.90;;;9.50;99.90;;;;;;5085132;28;20040;-67
2021/10/18 06:24:49;;;;;;;20.77;13.80;;;9.50;99.90;;;;;;5094251;28;20043;-68
2021/10/18 06:27:16;;;;;;;22.20;13.52;;;9.40;99.90;;;;;;5085268;28;20509;-67
2021/10/18 06:29:41;;;;;;;22.85;14.63;;;9.50;99.90;;;;;;5085535;28;20132;-67
2021/10/18 06:32:07;;;;;;;25.50;13.98;;;9.50;99.90;;;;;;5094447;28;20130;-67
2021/10/18 06:34:33;;;;;;;23.70;14.32;;;9.60;99.90;;;;;;5092921;28;20043;-68
2021/10/18 06:36:58;;;;;;;20.58;12.93;;;9.60;99.90;;;;;;5099924;28;20048;-67
2021/10/18 06:39:24;;;;;;;23.10;14.07;;;9.60;99.90;;;;;;5096077;28;20068;-67
2021/10/18 06:41:50;;;;;;;23.75;14.40;;;9.70;99.90;;;;;;5084861;28;20556;-68
2021/10/18 06:44:16;;;;;;;24.98;14.27;;;9.70;99.90;;;;;;5097538;28;20046;-68
2021/10/18 06:46:41;;;;;;;21.35;15.13;;;9.80;99.90;;;;;;5088469;28;20051;-67
2021/10/18 06:49:07;;;;;;;26.67;14.35;;;9.80;99.90;;;;;;5099838;28;20075;-67
2021/10/18 06:51:36;;;;;;;24.17;15.63;;;9.80;99.90;;;;;;5084755;28;20389;-67
2021/10/18 06:54:04;;;;;;;20.80;14.82;;;9.90;99.90;;;;;;5093326;28;20040;-67
2021/10/18 06:56:30;;;;;;;21.52;14.15;;;9.80;99.90;;;;;;5089677;28;20071;-67
2021/10/18 06:58:55;;;;;;;23.60;13.82;;;9.90;99.90;;;;;;5098385;28;20036;-67
2021/10/18 07:01:21;;;;;;;26.92;15.38;;;9.90;99.90;;;;;;5099485;28;20039;-67
2021/10/18 07:03:46;;;;;;;19.75;14.20;;;10.00;99.90;;;;;;5081289;28;20134;-67
2021/10/18 07:06:12;;;;;;;23.85;14.88;;;10.10;99.90;;;;;;5102675;28;20036;-67
2021/10/18 07:08:38;;;;;;;21.98;13.02;;;10.10;99.90;;;;;;5098708;28;20127;-67
2021/10/18 07:11:03;;;;;;;22.30;15.27;;;10.10;99.90;;;;;;5099531;28;20103;-67
2021/10/18 07:13:29;;;;;;;24.90;14.30;;;10.20;99.90;;;;;;5099373;28;20174;-67
2021/10/18 07:15:55;;;;;;;20.58;14.45;;;10.20;99.90;;;;;;5101201;28;20050;-67
2021/10/18 07:18:21;;;;;;;23.23;15.23;;;10.20;99.90;;;;;;5111121;28;20047;-67
2021/10/18 07:20:46;;;;;;;25.40;14.52;;;10.20;99.90;;;;;;5100264;28;20089;-67
2021/10/18 07:23:13;;;;;;;21.17;14.18;;;10.30;99.90;;;;;;5080825;28;20123;-67
2021/10/18 07:25:41;;;;;;;19.52;14.48;;;10.20;99.90;;;;;;5100596;28;20035;-67
2021/10/18 07:28:07;;;;;;;;;;;10.30;99.90;;;;;;5094822;28;20193;-67
2021/10/18 07:30:34;;;;;;;24.90;14.70;;;10.30;99.90;;;;;;5101174;28;19920;-67
2021/10/18 07:33:00;;;;;;;23.75;15.43;;;10.40;99.90;;;;;;5098917;28;20074;-67
2021/10/18 07:35:36;;;;;;;21.67;13.85;;;10.40;99.90;;;;;;5101840;28;20039;-67
2021/10/18 07:38:05;;;;;;;22.75;14.82;;;10.50;99.90;;;;;;5080481;28;20044;-67
2021/10/18 07:40:31;;;;;;;18.38;14.40;;;10.50;99.90;;;;;;5100116;28;20167;-67
2021/10/18 07:43:00;;;;;;;21.05;14.05;;;10.60;99.90;;;;;;5096251;28;20036;-67
2021/10/18 07:45:26;;;;;;;23.63;15.65;;;10.60;99.90;;;;;;5097974;28;20052;-67
2021/10/18 07:47:52;;;;;;;20.33;13.15;;;10.70;99.90;;;;;;5099738;28;20039;-67
2021/10/18 07:50:18;;;;;;;18.23;13.95;;;10.80;99.90;;;;;;5098380;28;20037;-67
2021/10/18 07:52:44;;;;;;;24.52;15.25;;;10.90;99.90;;;;;;5092208;28;20080;-67
2021/10/18 07:55:18;;;;;;;19.87;13.27;;;10.90;99.90;;;;;;5099694;28;20052;-67
2021/10/18 07:57:46;;;;;;;21.23;14.38;;;11.00;99.90;;;;;;5094839;28;20395;-67
2021/10/18 08:00:13;;;;;;;20.75;14.65;;;10.90;99.90;;;;;;5099993;28;20131;-67
2021/10/18 08:02:39;;;;;;;21.05;14.15;;;11.10;99.90;;;;;;5097766;28;20052;-67
2021/10/18 08:05:06;;;;;;;20.05;14.25;;;11.10;99.90;;;;;;5092118;28;20039;-67
2021/10/18 08:07:36;;;;;;;23.50;13.45;;;11.20;99.90;;;;;;5098112;28;20047;-67
2021/10/18 08:10:05;;;;;;;27.40;14.55;;;11.20;99.90;;;;;;5090484;28;20055;-67
2021/10/18 08:12:32;;;;;;;21.83;15.00;;;11.30;99.90;;;;;;5091650;28;20036;-67
2021/10/18 08:14:58;;;;;;;19.80;14.30;;;11.30;99.90;;;;;;5097903;28;20049;-67
2021/10/18 08:17:24;;;;;;;19.30;14.07;;;11.40;99.90;;;;;;5099796;28;20048;-67
2021/10/18 08:19:50;;;;;;;22.30;14.48;;;11.40;99.90;;;;;;5096742;28;20036;-67
2021/10/18 08:22:16;;;;;;;18.67;14.15;;;11.50;99.90;;;;;;5100340;28;20059;-67
2021/10/18 08:24:42;;;;;;;19.23;13.98;;;11.50;99.90;;;;;;5099020;28;20036;-66
2021/10/18 08:27:08;;;;;;;18.30;13.48;;;11.60;99.90;;;;;;5067175;28;20048;-62
2021/10/18 08:29:34;;;;;;;22.38;14.32;;;11.60;99.90;;;;;;5089380;28;20064;-61
2021/10/18 08:31:59;;;;;;;25.77;14.52;;;11.60;99.90;;;;;;5098560;28;20082;-62
2021/10/18 08:34:25;;;;;;;22.63;15.00;;;11.60;99.90;;;;;;5085057;28;20066;-62
2021/10/18 08:36:51;;;;;;;23.60;15.27;;;11.60;99.90;;;;;;5094328;28;20093;-62
2021/10/18 08:42:04;;;;;;;20.90;15.40;;;11.70;99.90;;;;;;5097077;28;20051;-62
2021/10/18 08:44:29;;;;;;;21.80;15.45;;;11.70;99.90;;;;;;5091934;28;20071;-62
2021/10/18 08:46:59;;;;;;;20.83;15.25;;;11.70;99.90;;;;;;5101103;28;20051;-62
2021/10/18 08:49:26;;;;;;;19.67;14.45;;;11.70;99.90;;;;;;5096953;28;20336;-62
2021/10/18 08:51:52;;;;;;;25.05;16.13;;;11.80;99.90;;;;;;5084859;28;20063;-62
2021/10/18 08:54:18;;;;;;;26.55;16.30;;;11.80;99.90;;;;;;5093763;28;20084;-62
2021/10/18 08:56:43;;;;;;;22.45;14.45;;;11.90;99.90;;;;;;5095338;28;20037;-63
2021/10/18 08:59:09;;;;;;;23.05;15.90;;;11.90;99.90;;;;;;5092366;28;20047;-62
2021/10/18 09:01:47;;;;;;;23.05;16.13;;;11.90;99.90;;;;;;5095610;28;20149;-62
2021/10/18 09:04:16;;;;;;;27.08;14.98;;;11.90;99.90;;;;;;5099286;28;20036;-62
2021/10/18 09:06:46;;;;;;;25.33;15.38;;;11.90;99.90;;;;;;5101887;28;20055;-63
2021/10/18 09:09:13;;;;;;;25.77;16.13;;;12.00;99.90;;;;;;5102141;28;20056;-61
2021/10/18 09:11:39;;;;;;;21.92;15.13;;;12.10;99.90;;;;;;5103712;28;20177;-62
2021/10/18 09:14:06;;;;;;;22.08;15.45;;;12.10;99.90;;;;;;5105071;28;20125;-62
2021/10/18 09:16:43;;;;;;;19.58;14.65;;;12.10;99.90;;;;;;5102442;28;20066;-62
2021/10/18 09:19:16;;;;;;;19.08;13.00;;;12.20;99.90;;;;;;5103760;28;20099;-65
2021/10/18 09:21:48;;;;;;;22.92;13.90;;;12.30;99.90;;;;;;5104436;28;20048;-64
2021/10/18 09:24:17;;;;;;;23.08;15.75;;;12.40;99.90;;;;;;5094128;28;20043;-65
2021/10/18 09:26:44;;;;;;;21.92;15.25;;;12.40;99.90;;;;;;5099736;28;20036;-64
2021/10/18 09:29:15;;;;;;;20.67;15.10;;;12.50;99.90;;;;;;5105498;28;20032;-68
2021/10/18 09:31:44;;;;;;;22.35;15.13;;;12.50;99.90;;;;;;5087703;28;20060;-69
2021/10/18 09:34:17;;;;;;;23.80;14.70;;;12.50;99.90;;;;;;5086564;28;20071;-71
2021/10/18 09:36:44;;;;;;;23.25;15.48;;;12.60;99.90;;;;;;5101581;28;20147;-69
2021/10/18 09:39:24;;;;;;;21.23;15.50;;;12.60;99.90;;;;;;5097164;28;20040;-66
2021/10/18 09:42:08;;;;;;;24.25;15.32;;;12.60;99.90;;;;;;5084354;28;20134;-69
2021/10/18 09:45:23;;;;;;;25.10;14.80;;;12.70;99.90;;;;;;5103201;28;20408;-75
2021/10/18 10:51:44;;;;;;;21.48;14.82;;;13.90;99.90;;;;;;5098161;28;20081;-68
2021/10/18 10:54:11;;;;;;;23.63;15.82;;;13.90;99.90;;;;;;5080270;28;20048;-67
2021/10/18 10:56:51;;;;;;;19.83;15.40;;;14.00;99.90;;;;;;5077254;28;20044;-66
2021/10/18 10:59:23;;;;;;;24.38;16.90;;;14.10;99.90;;;;;;5077284;28;20053;-66
2021/10/18 11:02:11;;;;;;;20.35;14.70;;;14.10;99.90;;;;;;5078333;28;20048;-66
2021/10/18 11:04:38;;;;;;;26.50;14.40;;;14.30;99.90;;;;;;5077089;28;20619;-65
2021/10/18 11:07:04;;;;;;;;;;;14.30;99.90;;;;;;5084283;28;20048;-67
2021/10/18 11:09:43;;;;;;;17.83;13.75;;;14.40;99.90;;;;;;5076674;28;19920;-66
2021/10/18 11:12:36;;;;;;;19.80;14.25;;;14.30;99.90;;;;;;5075705;28;20146;-69
2021/10/18 11:15:06;;;;;;;19.30;13.77;;;14.40;99.90;;;;;;5083151;28;20128;-68
2021/10/18 11:17:40;;;;;;;21.55;15.05;;;14.40;99.90;;;;;;5076418;28;20101;-59
2021/10/18 11:20:11;;;;;;;20.95;14.18;;;14.50;99.90;;;;;;5078258;28;20110;-59
2021/10/18 11:22:39;;;;;;;17.90;12.85;;;14.60;99.90;;;;;;5081549;28;20126;-60
2021/10/18 11:25:10;;;;;;;20.00;13.55;;;14.60;99.90;;;;;;5083258;28;20055;-60
2021/10/18 11:27:37;;;;;;;19.33;13.00;;;14.80;99.90;;;;;;5079956;28;20044;-60
2021/10/18 11:30:10;;;;;;;25.90;13.95;;;14.80;99.90;;;;;;5083272;28;20461;-64
2021/10/18 11:32:36;;;;;;;21.90;14.23;;;15.40;99.90;;;;;;5082513;28;20055;-62
2021/10/18 11:35:21;;;;;;;22.73;13.52;;;15.30;99.90;;;;;;5077956;28;20041;-63
2021/10/18 11:37:52;;;;;;;17.67;13.05;;;15.90;99.90;;;;;;5078381;28;20687;-64
2021/10/18 11:40:20;;;;;;;18.75;12.93;;;16.20;99.90;;;;;;5082516;28;20040;-63
2021/10/18 11:42:55;;;;;;;17.23;12.65;;;16.20;99.90;;;;;;5074607;28;20056;-62
2021/10/18 11:45:27;;;;;;;16.77;12.65;;;16.20;99.90;;;;;;5081716;28;20065;-63
2021/10/18 11:48:01;;;;;;;16.80;13.18;;;16.10;99.90;;;;;;5075967;28;20295;-65
2021/10/18 11:50:27;;;;;;;16.33;12.48;;;15.70;99.90;;;;;;5075903;28;20036;-66
2021/10/18 11:52:55;;;;;;;19.83;12.98;;;15.50;99.90;;;;;;5089539;28;20052;-63
2021/10/18 11:55:32;;;;;;;16.55;12.95;;;15.30;99.90;;;;;;5102276;28;20055;-63
2021/10/18 11:58:00;;;;;;;18.55;13.25;;;15.20;99.90;;;;;;5102667;28;20040;-64
2021/10/18 12:00:41;;;;;;;18.50;13.80;;;15.10;99.90;;;;;;5100000;28;20051;-64
2021/10/18 12:03:08;;;;;;;16.88;12.00;;;15.10;99.90;;;;;;5072106;28;20051;-65
2021/10/18 12:05:43;;;;;;;18.15;13.57;;;15.00;99.90;;;;;;5100304;28;20048;-65
2021/10/18 12:08:17;;;;;;;18.52;13.68;;;15.00;99.90;;;;;;5102141;28;20093;-63
2021/10/18 12:10:45;;;;;;;19.60;12.93;;;15.00;99.90;;;;;;5101025;28;20310;-63
2021/10/18 12:13:21;;;;;;;20.42;13.25;;;15.20;99.90;;;;;;5097962;28;20036;-63
2021/10/18 12:15:56;;;;;;;14.63;12.30;;;15.30;99.90;;;;;;5099371;28;20074;-63
2021/10/18 12:18:46;;;;;;;17.88;12.90;;;15.40;99.90;;;;;;5096579;28;20040;-63
2021/10/18 12:21:25;;;;;;;19.33;12.40;;;15.70;99.90;;;;;;5083810;28;20048;-66
2021/10/18 12:23:57;;;;;;;15.38;11.73;;;15.60;99.90;;;;;;5093881;28;20483;-66
2021/10/18 12:26:28;;;;;;;15.88;11.82;;;15.60;99.90;;;;;;5102377;28;20161;-66
2021/10/18 12:29:06;;;;;;;19.75;12.25;;;15.70;99.90;;;;;;5100308;28;20483;-67
2021/10/18 12:31:36;;;;;;;17.70;13.38;;;15.80;99.90;;;;;;5098282;28;20047;-64
2021/10/18 12:34:24;;;;;;;16.30;11.98;;;15.90;99.90;;;;;;5099963;28;20040;-64
2021/10/18 12:37:13;;;;;;;16.08;12.13;;;16.10;99.90;;;;;;5100730;28;20048;-64
2021/10/18 12:39:42;;;;;;;17.48;12.00;;;16.20;99.90;;;;;;5105612;28;20044;-67
2021/10/18 12:42:33;;;;;;;17.58;12.90;;;16.30;99.90;;;;;;5107483;28;20419;-64
2021/10/18 12:45:13;;;;;;;17.02;11.50;;;16.20;99.90;;;;;;5102932;28;20055;-64
2021/10/18 12:47:50;;;;;;;16.83;12.65;;;16.40;99.90;;;;;;5100775;28;20055;-63
2021/10/18 12:50:22;;;;;;;19.25;12.48;;;16.60;99.90;;;;;;5095286;28;20496;-62
2021/10/18 12:52:56;;;;;;;13.95;10.80;;;16.20;99.90;;;;;;5101761;28;20056;-62
2021/10/18 12:55:24;;;;;;;14.93;10.35;;;16.20;99.90;;;;;;5099162;28;20040;-62
2021/10/18 12:58:04;;;;;;;16.08;11.57;;;16.00;99.90;;;;;;5106405;28;20498;-63
2021/10/18 13:00:35;;;;;;;18.60;11.95;;;15.80;99.90;;;;;;5093802;28;20135;-62
2021/10/18 13:03:07;;;;;;;14.20;10.98;;;15.90;99.90;;;;;;5104534;28;20044;-62
2021/10/18 13:05:45;;;;;;;18.50;12.85;;;15.80;99.90;;;;;;5105015;28;20054;-62
2021/10/18 13:08:14;;;;;;;15.30;12.18;;;15.80;99.90;;;;;;5103730;28;20052;-66
2021/10/18 13:10:41;;;;;;;18.52;12.57;;;15.60;99.90;;;;;;5099948;28;20044;-62
2021/10/18 13:13:09;;;;;;;15.95;12.18;;;15.70;99.90;;;;;;5104997;28;20097;-63
2021/10/18 13:15:35;;;;;;;19.60;12.27;;;15.70;99.90;;;;;;5100587;28;20375;-62
2021/10/18 13:18:02;;;;;;;15.73;12.43;;;15.70;99.90;;;;;;5105020;28;20047;-61
2021/10/18 13:20:28;;;;;;;14.93;12.32;;;15.70;99.90;;;;;;5105702;28;20298;-61
2021/10/18 13:22:56;;;;;;;23.00;12.93;;;15.50;99.90;;;;;;5102706;28;20080;-62
2021/10/18 13:25:24;;;;;;;18.33;12.07;;;15.50;99.90;;;;;;5099769;28;20036;-63
2021/10/18 13:27:51;;;;;;;24.67;12.80;;;15.50;99.90;;;;;;5084636;28;20049;-62
2021/10/18 13:30:17;;;;;;;18.02;12.73;;;15.50;99.90;;;;;;5101006;28;20052;-62
2021/10/18 13:32:43;;;;;;;19.38;12.48;;;15.50;99.90;;;;;;5094592;28;20050;-62
2021/10/18 13:35:10;;;;;;;16.05;12.38;;;15.50;99.90;;;;;;5103614;28;20164;-63
2021/10/18 13:37:37;;;;;;;18.63;11.38;;;15.50;99.90;;;;;;5101836;28;20483;-62
2021/10/18 13:40:04;;;;;;;19.88;12.60;;;15.50;99.90;;;;;;5096958;28;20491;-63
2021/10/18 13:42:30;;;;;;;;;;;15.70;99.90;;;;;;5107116;28;20415;-66
2021/10/18 13:44:56;;;;;;;17.80;13.18;;;15.90;99.90;;;;;;5102083;28;19920;-67